Time;durP1;ratioP1;P1;durP2;ratioP2;P2;SDS_P1;SDS_P2;PMS_P1;PMS_P2;Temp;Humidity;BMP_temperature;BMP_pressure;BME280_temperature;BME280_humidity;BME280_pressure;Samples;Min_cycle;Max_cycle;Signal;HPM_P1;HPM_P2
2021/11/01 00:00:52;;;;;;;7.03;5.20;;;;;;;;;;5018848;28;20415;-65
2021/11/01 00:03:18;;;;;;;5.57;4.00;;;;;;;;;;5020562;28;20411;-64
2021/11/01 00:05:46;;;;;;;5.03;4.17;;;;;;;;;;5020286;28;20513;-64
2021/11/01 00:08:12;;;;;;;4.67;4.00;;;;;;;;;;5020727;28;20462;-64
2021/11/01 00:10:39;;;;;;;6.73;4.33;;;;;;;;;;5019801;28;20430;-65
2021/11/01 00:13:05;;;;;;;5.70;4.30;;;;;;;;;;5020086;28;20422;-64
2021/11/01 00:15:31;;;;;;;6.27;4.40;;;;;;;;;;5020437;28;20424;-64
2021/11/01 00:17:57;;;;;;;5.57;4.20;;;;;;;;;;5020482;28;20459;-65
2021/11/01 00:20:24;;;;;;;5.30;4.07;;;;;;;;;;5020439;28;20416;-64
2021/11/01 00:22:50;;;;;;;5.90;3.70;;;;;;;;;;5018850;28;20407;-64
2021/11/01 00:25:16;;;;;;;6.10;4.10;;;;;;;;;;5018564;28;20427;-64
2021/11/01 00:27:42;;;;;;;4.40;3.70;;;;;;;;;;5018327;28;20408;-64
2021/11/01 00:30:09;;;;;;;5.13;4.50;;;;;;;;;;5017785;28;20410;-64
2021/11/01 00:32:35;;;;;;;4.70;3.70;;;;;;;;;;5016560;28;20465;-64
2021/11/01 00:35:01;;;;;;;6.17;4.37;;;;;;;;;;5015841;28;20481;-64
2021/11/01 00:37:28;;;;;;;5.73;3.90;;;;;;;;;;5016870;28;20785;-65
2021/11/01 00:39:57;;;;;;;6.20;4.23;;;;;;;;;;5018070;28;20894;-64
2021/11/01 00:42:23;;;;;;;6.97;4.43;;;;;;;;;;5020219;28;20407;-64
2021/11/01 00:44:49;;;;;;;5.30;4.07;;;;;;;;;;5019912;28;20486;-64
2021/11/01 00:47:16;;;;;;;4.87;3.90;;;;;;;;;;5020292;28;20485;-64
2021/11/01 00:49:42;;;;;;;4.97;4.10;;;;;;;;;;5019623;28;20465;-64
2021/11/01 00:52:08;;;;;;;5.60;4.00;;;;;;;;;;5018658;28;20466;-64
2021/11/01 00:54:35;;;;;;;5.97;4.17;;;;;;;;;;5018161;28;20443;-64
2021/11/01 00:57:02;;;;;;;6.13;4.07;;;;;;;;;;5019218;28;20504;-64
2021/11/01 00:59:28;;;;;;;5.10;4.10;;;;;;;;;;5018203;28;20418;-65
2021/11/01 01:01:54;;;;;;;4.80;4.00;;;;;;;;;;5018010;28;20400;-64
2021/11/01 01:04:23;;;;;;;5.33;3.80;;;;;;;;;;5017258;28;20415;-64
2021/11/01 01:06:50;;;;;;;7.10;5.13;;;;;;;;;;5016979;28;20490;-64
2021/11/01 01:09:16;;;;;;;7.67;5.27;;;;;;;;;;5015535;28;20465;-64
2021/11/01 01:11:42;;;;;;;6.37;5.30;;;;;;;;;;5014620;28;20922;-64
2021/11/01 01:14:08;;;;;;;10.23;4.93;;;;;;;;;;5018144;28;20460;-65
2021/11/01 01:16:42;;;;;;;7.07;4.77;;;;;;;;;;5018667;28;20443;-64
2021/11/01 01:19:15;;;;;;;7.27;4.80;;;;;;;;;;5019586;28;20424;-64
2021/11/01 01:24:26;;;;;;;7.70;5.63;;;;;;;;;;5019832;28;20422;-64
2021/11/01 01:26:52;;;;;;;6.90;5.40;;;;;;;;;;5019379;28;20473;-64
2021/11/01 01:29:18;;;;;;;7.20;5.07;;;;;;;;;;5018157;28;20775;-64
2021/11/01 01:31:44;;;;;;;8.13;4.90;;;;;;;;;;5018280;28;20884;-63
2021/11/01 01:34:10;;;;;;;5.37;4.17;;;;;;;;;;5018241;28;20457;-63
2021/11/01 01:36:36;;;;;;;5.30;4.47;;;;;;;;;;5028544;28;20496;-64
2021/11/01 01:39:03;;;;;;;4.50;3.97;;;;;;;;;;5019946;28;20403;-64
2021/11/01 01:41:29;;;;;;;6.27;4.67;;;;;;;;;;5030703;28;20848;-64
2021/11/01 01:43:57;;;;;;;4.83;3.70;;;;;;;;;;5038564;28;20442;-64
2021/11/01 01:46:24;;;;;;;4.60;3.87;;;;;;;;;;5038541;28;20403;-64
2021/11/01 01:48:52;;;;;;;5.60;4.43;;;;;;;;;;5038490;28;20426;-64
2021/11/01 01:51:18;;;;;;;6.47;4.63;;;;;;;;;;5038031;28;20771;-64
2021/11/01 01:53:44;;;;;;;5.70;4.63;;;;;;;;;;5025222;28;20418;-65
2021/11/01 01:56:10;;;;;;;6.23;4.30;;;;;;;;;;5017099;28;20414;-64
2021/11/01 01:58:40;;;;;;;6.43;5.53;;;;;;;;;;5018649;28;20450;-63
2021/11/01 02:01:12;;;;;;;5.53;4.60;;;;;;;;;;5016781;28;20427;-65
2021/11/01 02:03:38;;;;;;;5.80;4.30;;;;;;;;;;5017796;28;20388;-64
2021/11/01 02:06:07;;;;;;;9.03;4.20;;;;;;;;;;5018825;28;20430;-64
2021/11/01 02:08:39;;;;;;;7.00;4.90;;;;;;;;;;5018704;28;20403;-64
2021/11/01 02:11:09;;;;;;;7.47;5.07;;;;;;;;;;5019655;28;20376;-64
2021/11/01 02:13:36;;;;;;;7.37;4.53;;;;;;;;;;5018737;28;20399;-64
2021/11/01 02:16:03;;;;;;;6.87;4.90;;;;;;;;;;5018744;28;20428;-65
2021/11/01 02:18:31;;;;;;;5.43;4.53;;;;;;;;;;5018097;28;20416;-65
2021/11/01 02:21:04;;;;;;;5.87;5.10;;;;;;;;;;5018900;28;20423;-64
2021/11/01 02:23:30;;;;;;;6.30;4.70;;;;;;;;;;5022862;28;20779;-63
2021/11/01 02:25:58;;;;;;;6.97;5.17;;;;;;;;;;5022163;28;20431;-63
2021/11/01 02:28:31;;;;;;;6.27;4.87;;;;;;;;;;5021825;28;20425;-63
2021/11/01 02:30:58;;;;;;;6.23;5.10;;;;;;;;;;5022743;28;20760;-63
2021/11/01 02:33:25;;;;;;;9.87;6.97;;;;;;;;;;5022400;28;20419;-63
2021/11/01 02:35:51;;;;;;;7.60;5.10;;;;;;;;;;5022185;28;20432;-64
2021/11/01 02:38:19;;;;;;;6.53;5.10;;;;;;;;;;5022465;28;20938;-63
2021/11/01 02:40:46;;;;;;;8.20;5.70;;;;;;;;;;5022210;28;20549;-63
2021/11/01 02:43:13;;;;;;;7.37;4.90;;;;;;;;;;5022206;28;20410;-63
2021/11/01 02:45:39;;;;;;;5.00;4.37;;;;;;;;;;5021721;28;20430;-63
2021/11/01 02:48:05;;;;;;;6.23;4.43;;;;;;;;;;5021040;28;20422;-63
2021/11/01 02:50:32;;;;;;;6.47;5.27;;;;;;;;;;5019881;28;20411;-63
2021/11/01 02:52:58;;;;;;;7.90;4.87;;;;;;;;;;5016903;28;20431;-63
2021/11/01 02:55:24;;;;;;;7.60;4.57;;;;;;;;;;5018125;28;20471;-63
2021/11/01 02:57:51;;;;;;;6.60;5.07;;;;;;;;;;5017421;28;20450;-63
2021/11/01 03:00:19;;;;;;;6.47;4.73;;;;;;;;;;5019126;28;20832;-64
2021/11/01 03:02:45;;;;;;;6.80;4.63;;;;;;;;;;5021073;28;20412;-64
2021/11/01 03:05:13;;;;;;;9.40;4.80;;;;;;;;;;5022550;28;20434;-63
2021/11/01 03:07:40;;;;;;;6.70;5.03;;;;;;;;;;5021881;28;20427;-63
2021/11/01 03:10:07;;;;;;;7.13;5.43;;;;;;;;;;5021904;28;20408;-63
2021/11/01 03:12:33;;;;;;;7.70;4.90;;;;;;;;;;5021298;28;20410;-63
2021/11/01 03:15:04;;;;;;;7.13;5.00;;;;;;;;;;5021674;28;20424;-63
2021/11/01 03:17:32;;;;;;;6.43;5.53;;;;;;;;;;5021717;28;20446;-63
2021/11/01 03:20:07;;;;;;;13.87;5.93;;;;;;;;;;5021976;28;20408;-63
2021/11/01 03:22:36;;;;;;;16.40;9.00;;;;;;;;;;5021695;28;20391;-63
2021/11/01 03:25:05;;;;;;;20.73;10.07;;;;;;;;;;5021742;28;20473;-63
2021/11/01 03:27:37;;;;;;;17.23;10.50;;;;;;;;;;5019991;28;20448;-64
2021/11/01 03:30:04;;;;;;;17.30;8.43;;;;;;;;;;5021068;28;20407;-63
2021/11/01 03:32:30;;;;;;;8.57;5.73;;;;;;;;;;5020631;28;20479;-63
2021/11/01 03:34:57;;;;;;;9.20;5.30;;;;;;;;;;5020119;28;20430;-63
2021/11/01 03:37:25;;;;;;;8.37;5.07;;;;;;;;;;5021551;28;20792;-63
2021/11/01 03:39:52;;;;;;;7.10;4.80;;;;;;;;;;5020236;28;20396;-64
2021/11/01 03:42:18;;;;;;;14.90;6.50;;;;;;;;;;5020710;28;20781;-64
2021/11/01 03:44:50;;;;;;;8.10;5.80;;;;;;;;;;5021367;28;20828;-64
2021/11/01 03:47:17;;;;;;;8.40;5.27;;;;;;;;;;5021451;28;20460;-64
2021/11/01 03:50:00;;;;;;;8.07;4.80;;;;;;;;;;5022032;28;20426;-64
2021/11/01 03:52:34;;;;;;;9.47;5.80;;;;;;;;;;5021594;28;20399;-64
2021/11/01 03:55:01;;;;;;;6.33;4.37;;;;;;;;;;5020297;28;20444;-65
2021/11/01 03:57:27;;;;;;;5.27;4.37;;;;;;;;;;5025941;28;20450;-64
2021/11/01 03:59:53;;;;;;;8.20;4.97;;;;;;;;;;5040583;28;20916;-64
2021/11/01 04:02:21;;;;;;;6.67;4.20;;;;;;;;;;5040902;28;20441;-64
2021/11/01 04:04:51;;;;;;;7.97;4.80;;;;;;;;;;5040880;28;20423;-64
2021/11/01 04:07:18;;;;;;;7.67;5.60;;;;;;;;;;5040712;28;20395;-64
2021/11/01 04:09:44;;;;;;;8.43;5.57;;;;;;;;;;5040728;28;20419;-64
2021/11/01 04:12:11;;;;;;;6.07;5.00;;;;;;;;;;5041077;28;20410;-63
2021/11/01 04:15:25;;;;;;;6.20;4.30;;;;;;;;;;5039841;28;20541;-63
2021/11/01 04:17:26;;;;;;;6.37;3.70;;;;;;;;;;5036294;28;20603;-65
2021/11/01 04:22:37;;;;;;;4.80;3.53;;;;;;;;;;5041074;28;20387;-63
2021/11/01 04:25:04;;;;;;;5.77;3.70;;;;;;;;;;5032627;28;20861;-63
2021/11/01 04:27:30;;;;;;;6.43;4.50;;;;;;;;;;5021191;28;20414;-65
2021/11/01 04:29:58;;;;;;;8.03;5.50;;;;;;;;;;5020824;28;20771;-64
2021/11/01 04:32:42;;;;;;;12.60;6.20;;;;;;;;;;5020050;28;20864;-64
2021/11/01 04:37:36;;;;;;;4.80;3.90;;;;;;;;;;5020586;28;20443;-64
2021/11/01 04:53:49;;;;;;;5.57;4.60;;;;;;;;;;5015327;28;20857;-63
2021/11/01 04:56:20;;;;;;;6.60;4.77;;;;;;;;;;5033882;28;20394;-63
2021/11/01 04:58:47;;;;;;;6.80;4.00;;;;;;;;;;5034245;28;20426;-63
2021/11/01 05:01:16;;;;;;;5.57;4.13;;;;;;;;;;5034156;28;20407;-63
2021/11/01 05:03:43;;;;;;;11.60;4.60;;;;;;;;;;5034044;28;20501;-63
2021/11/01 05:06:11;;;;;;;6.30;3.90;;;;;;;;;;5034053;28;20403;-63
2021/11/01 05:09:23;;;;;;;4.17;3.77;;;;;;;;;;5033987;28;20403;-63
2021/11/01 05:11:33;;;;;;;6.80;4.00;;;;;;;;;;5012005;28;20432;-63
2021/11/01 05:14:00;;;;;;;5.97;4.03;;;;;;;;;;5013780;28;20392;-65
2021/11/01 05:16:41;;;;;;;6.53;4.30;;;;;;;;;;5013781;28;20447;-63
2021/11/01 05:21:52;;;;;;;4.03;3.23;;;;;;;;;;5015764;28;20388;-63
2021/11/01 05:29:30;;;;;;;4.63;3.80;;;;;;;;;;5033907;28;20398;-63
2021/11/01 05:32:01;;;;;;;5.10;4.20;;;;;;;;;;5033743;28;20441;-63
2021/11/01 05:34:27;;;;;;;5.03;4.10;;;;;;;;;;5033703;28;20430;-63
2021/11/01 05:36:53;;;;;;;6.50;4.70;;;;;;;;;;5033234;28;20549;-63
2021/11/01 05:39:19;;;;;;;7.17;5.60;;;;;;;;;;5033305;28;20407;-63
2021/11/01 05:41:45;;;;;;;7.43;5.00;;;;;;;;;;5033256;28;20398;-63
2021/11/01 05:44:11;;;;;;;6.97;4.30;;;;;;;;;;5033318;28;20426;-63
2021/11/01 05:46:42;;;;;;;6.90;4.63;;;;;;;;;;5033400;28;20403;-63
2021/11/01 05:49:09;;;;;;;5.87;4.83;;;;;;;;;;5033493;28;20382;-63
2021/11/01 05:51:36;;;;;;;5.67;4.03;;;;;;;;;;5032340;28;20407;-63
2021/11/01 05:54:06;;;;;;;5.43;4.10;;;;;;;;;;5029990;28;20800;-64
2021/11/01 06:04:34;;;;;;;5.23;4.30;;;;;;;;;;5017671;28;20451;-63
2021/11/01 06:14:59;;;;;;;12.77;6.03;;;;;;;;;;5017554;28;20480;-63
2021/11/01 06:17:25;;;;;;;13.20;7.27;;;;;;;;;;5016983;28;20534;-63
2021/11/01 06:19:51;;;;;;;10.10;5.40;;;;;;;;;;5017066;28;20825;-63
2021/11/01 06:22:17;;;;;;;6.90;4.47;;;;;;;;;;5031001;28;20407;-63
2021/11/01 06:27:11;;;;;;;6.17;4.37;;;;;;;;;;5037061;28;20402;-63
2021/11/01 06:30:08;;;;;;;7.77;4.83;;;;;;;;;;5036702;28;20409;-63
2021/11/01 06:32:33;;;;;;;5.10;4.00;;;;;;;;;;5036508;28;20476;-62
2021/11/01 06:54:27;;;;;;;6.07;2.50;;;;;;;;;;5034834;28;20469;-64
2021/11/01 07:18:11;;;;;;;5.50;3.63;;;;;;;;;;5016359;28;20446;-63
2021/11/01 08:25:49;;;;;;;6.27;5.00;;;;;;;;;;5034284;28;20432;-67
2021/11/01 08:36:44;;;;;;;7.00;5.53;;;;;;;;;;5033966;28;20441;-68
2021/11/01 09:26:50;;;;;;;7.13;4.20;;;;;;;;;;5009584;28;20542;-67
2021/11/01 09:28:56;;;;;;;5.27;4.07;;;;;;;;;;5013176;28;20411;-67
2021/11/01 09:37:04;;;;;;;6.50;4.63;;;;;;;;;;5014002;28;20446;-65
2021/11/01 09:42:05;;;;;;;4.93;3.33;;;;;;;;;;5013561;28;20433;-67
2021/11/01 09:44:32;;;;;;;6.27;3.80;;;;;;;;;;5013240;28;20928;-67
2021/11/01 09:46:59;;;;;;;6.17;4.10;;;;;;;;;;5013874;28;20407;-67
2021/11/01 09:49:26;;;;;;;5.60;3.50;;;;;;;;;;5013423;28;20870;-67
2021/11/01 09:51:54;;;;;;;5.87;3.97;;;;;;;;;;5013453;28;20462;-67
2021/11/01 09:54:25;;;;;;;5.50;3.33;;;;;;;;;;5028895;28;20454;-67
2021/11/01 09:57:01;;;;;;;4.13;3.00;;;;;;;;;;5033145;28;20477;-67
2021/11/01 09:59:29;;;;;;;3.10;2.40;;;;;;;;;;5033458;28;20395;-67
2021/11/01 10:01:56;;;;;;;4.50;2.00;;;;;;;;;;5033305;28;20410;-67
2021/11/01 10:04:27;;;;;;;5.70;2.70;;;;;;;;;;5033154;28;21085;-67
2021/11/01 10:07:19;;;;;;;4.30;2.47;;;;;;;;;;5033003;28;20461;-67
2021/11/01 10:09:43;;;;;;;6.00;2.53;;;;;;;;;;5032957;28;20428;-67
2021/11/01 10:12:11;;;;;;;3.40;2.50;;;;;;;;;;5033143;28;20469;-66
2021/11/01 10:14:47;;;;;;;3.77;2.70;;;;;;;;;;5032700;28;20430;-67
2021/11/01 10:19:58;;;;;;;3.93;2.53;;;;;;;;;;5032889;28;20421;-66
2021/11/01 10:22:32;;;;;;;4.77;2.80;;;;;;;;;;5032806;28;20434;-67
2021/11/01 10:24:59;;;;;;;3.50;2.63;;;;;;;;;;5033080;28;20564;-67
2021/11/01 10:27:48;;;;;;;21.70;4.67;;;;;;;;;;5032957;28;20394;-67
2021/11/01 10:30:16;;;;;;;4.90;2.87;;;;;;;;;;5033093;28;20818;-67
2021/11/01 10:32:48;;;;;;;5.10;4.03;;;;;;;;;;5032812;28;20441;-67
2021/11/01 10:35:22;;;;;;;6.07;3.63;;;;;;;;;;5033123;28;20437;-67
2021/11/01 10:38:12;;;;;;;4.80;3.40;;;;;;;;;;5032867;28;20453;-67
2021/11/01 11:13:45;;;;;;;4.17;3.00;;;;;;;;;;5016434;28;20400;-66
2021/11/01 11:16:25;;;;;;;7.53;3.43;;;;;;;;;;5016482;28;20392;-67
2021/11/01 11:19:06;;;;;;;3.73;3.10;;;;;;;;;;5016280;28;20399;-67
2021/11/01 11:47:07;;;;;;;2.37;1.30;;;;;;;;;;5035495;28;20937;-66
2021/11/01 11:49:34;;;;;;;2.43;1.20;;;;;;;;;;5035450;28;20444;-66
2021/11/01 11:52:02;;;;;;;2.23;1.33;;;;;;;;;;5028036;28;20807;-66
2021/11/01 11:54:37;;;;;;;2.93;2.03;;;;;;;;;;5037700;23;20594;-65
2021/11/01 11:57:04;;;;;;;3.00;2.07;;;;;;;;;;5000939;28;20847;-64
2021/11/01 11:59:35;;;;;;;2.90;1.80;;;;;;;;;;4995809;28;20396;-64
2021/11/01 12:02:05;;;;;;;2.90;1.63;;;;;;;;;;5003894;28;20411;-65
2021/11/01 12:04:37;;;;;;;2.53;1.50;;;;;;;;;;5015315;28;20423;-64
2021/11/01 12:07:06;;;;;;;3.50;1.50;;;;;;;;;;5015199;28;20384;-64
2021/11/01 12:09:45;;;;;;;2.63;1.30;;;;;;;;;;5015316;28;20404;-64
2021/11/01 12:17:17;;;;;;;3.30;1.43;;;;;;;;;;4995845;28;20437;-64
2021/11/01 12:19:43;;;;;;;5.53;1.60;;;;;;;;;;4995310;28;20400;-64
2021/11/01 12:22:12;;;;;;;3.80;1.60;;;;;;;;;;4995599;28;20404;-65
2021/11/01 12:24:45;;;;;;;2.87;1.60;;;;;;;;;;4993702;28;20424;-64
2021/11/01 12:27:11;;;;;;;3.07;1.50;;;;;;;;;;4995336;28;20439;-64
2021/11/01 12:29:38;;;;;;;2.33;1.53;;;;;;;;;;4995521;28;20411;-65
2021/11/01 12:32:07;;;;;;;2.60;1.40;;;;;;;;;;4994787;28;20396;-65
2021/11/01 12:34:46;;;;;;;1.80;1.30;;;;;;;;;;4995241;28;20522;-64
2021/11/01 12:37:24;;;;;;;2.93;1.53;;;;;;;;;;4995074;28;20987;-66
2021/11/01 12:39:58;;;;;;;3.30;1.90;;;;;;;;;;4993794;28;20412;-64
2021/11/01 12:48:07;;;;;;;2.30;1.60;;;;;;;;;;4993655;28;20435;-64
2021/11/01 12:58:51;;;;;;;4.33;2.40;;;;;;;;;;4995009;28;20399;-64
2021/11/01 13:01:18;;;;;;;2.53;1.90;;;;;;;;;;4994776;28;20407;-64
2021/11/01 13:03:52;;;;;;;2.60;2.13;;;;;;;;;;4994542;28;20428;-64
2021/11/01 13:06:30;;;;;;;2.60;2.27;;;;;;;;;;4994273;28;20435;-65
2021/11/01 13:09:00;;;;;;;4.27;2.80;;;;;;;;;;4994444;28;20388;-65
2021/11/01 13:14:49;;;;;;;2.83;2.07;;;;;;;;;;4993142;28;20721;-65
2021/11/01 13:20:04;;;;;;;4.43;3.03;;;;;;;;;;4994486;28;20384;-66
2021/11/01 13:22:32;;;;;;;3.53;1.97;;;;;;;;;;4994099;28;20411;-65
2021/11/01 13:36:25;;;;;;;7.00;3.03;;;;;;;;;;4994284;28;20454;-65
2021/11/01 13:38:33;;;;;;;2.93;2.33;;;;;;;;;;4993724;28;20542;-65
2021/11/01 13:41:00;;;;;;;2.97;1.87;;;;;;;;;;4993931;28;20835;-64
2021/11/01 13:43:27;;;;;;;3.23;2.30;;;;;;;;;;4993979;28;20769;-65
2021/11/01 13:45:54;;;;;;;2.57;1.70;;;;;;;;;;4993981;28;20514;-65
2021/11/01 13:48:27;;;;;;;3.33;1.90;;;;;;;;;;4994266;28;20401;-65
2021/11/01 13:51:00;;;;;;;3.40;2.00;;;;;;;;;;5003881;28;20419;-65
2021/11/01 13:53:29;;;;;;;2.90;1.93;;;;;;;;;;5013679;28;20423;-65
2021/11/01 13:56:06;;;;;;;2.43;2.00;;;;;;;;;;5013262;28;20912;-64
2021/11/01 13:58:35;;;;;;;5.37;2.97;;;;;;;;;;5013514;28;20435;-65
2021/11/01 15:06:45;;;;;;;4.53;1.60;;;;;;;;;;4997244;28;20421;-66
2021/11/01 15:09:49;;;;;;;2.27;1.60;;;;;;;;;;4996645;28;20404;-64
2021/11/01 16:17:29;;;;;;;5.20;1.60;;;;;;;;;;4995792;28;20578;-65
2021/11/01 16:19:56;;;;;;;1.77;1.30;;;;;;;;;;4995464;28;20392;-65
2021/11/01 16:22:23;;;;;;;1.87;1.40;;;;;;;;;;4995236;28;20444;-65
2021/11/01 16:24:49;;;;;;;3.27;1.23;;;;;;;;;;4995529;28;20911;-65
2021/11/01 16:27:19;;;;;;;3.00;1.63;;;;;;;;;;4995144;28;20516;-64
2021/11/01 16:32:23;;;;;;;3.00;1.70;;;;;;;;;;4995149;28;20408;-65
2021/11/01 16:34:55;;;;;;;2.93;2.03;;;;;;;;;;4994993;28;20435;-65
2021/11/01 16:37:28;;;;;;;2.63;1.77;;;;;;;;;;4995121;28;20496;-65
2021/11/01 16:39:59;;;;;;;2.97;2.10;;;;;;;;;;4994444;28;20401;-64
2021/11/01 16:42:32;;;;;;;2.07;1.70;;;;;;;;;;4995123;28;20389;-65
2021/11/01 16:45:05;;;;;;;3.00;1.93;;;;;;;;;;4994946;28;20421;-64
2021/11/01 16:47:31;;;;;;;3.50;2.13;;;;;;;;;;4994734;28;20420;-65
2021/11/01 16:49:57;;;;;;;2.87;1.73;;;;;;;;;;5008260;28;20407;-64
2021/11/01 16:52:25;;;;;;;4.27;1.87;;;;;;;;;;5014065;28;20419;-65
2021/11/01 16:54:55;;;;;;;2.83;1.70;;;;;;;;;;5014083;28;20470;-65
2021/11/01 16:57:29;;;;;;;3.10;2.30;;;;;;;;;;5014038;28;20492;-65
2021/11/01 17:02:48;;;;;;;3.97;2.10;;;;;;;;;;5014184;28;20699;-64
2021/11/01 17:05:24;;;;;;;3.40;2.20;;;;;;;;;;5014170;28;20474;-64
2021/11/01 17:08:24;;;;;;;2.97;2.00;;;;;;;;;;5013976;28;20388;-64
2021/11/01 17:21:40;;;;;;;2.10;1.50;;;;;;;;;;5013751;28;20418;-65
2021/11/01 17:24:14;;;;;;;1.90;1.33;;;;;;;;;;5013780;28;20383;-66
2021/11/01 17:35:46;;;;;;;3.20;1.83;;;;;;;;;;5013909;28;20486;-65
2021/11/01 18:37:09;;;;;;;2.47;1.50;;;;;;;;;;5013387;28;20418;-64
2021/11/01 18:39:47;;;;;;;2.17;1.77;;;;;;;;;;5012897;28;20487;-64
2021/11/01 18:42:28;;;;;;;2.33;1.53;;;;;;;;;;5013364;28;20807;-64
2021/11/01 18:52:56;;;;;;;2.20;1.60;;;;;;;;;;5013484;28;20499;-64
2021/11/01 18:55:23;;;;;;;2.93;1.73;;;;;;;;;;5013059;28;20943;-64
2021/11/01 18:57:50;;;;;;;3.53;1.93;;;;;;;;;;5012975;28;20470;-64
2021/11/01 19:00:17;;;;;;;2.73;1.87;;;;;;;;;;5013415;28;20771;-64
2021/11/01 19:02:49;;;;;;;3.20;2.10;;;;;;;;;;5013423;28;20407;-64
2021/11/01 19:05:22;;;;;;;2.70;1.80;;;;;;;;;;5016643;28;20432;-65
2021/11/01 19:08:03;;;;;;;2.37;1.67;;;;;;;;;;5016599;28;20396;-65
2021/11/01 21:26:23;;;;;;;1.97;1.30;;;;;;;;;;5013945;28;20423;-65
2021/11/01 21:28:50;;;;;;;2.77;1.50;;;;;;;;;;5013728;28;20391;-65
2021/11/01 21:31:16;;;;;;;3.70;1.47;;;;;;;;;;5013880;28;20431;-66
2021/11/01 21:33:45;;;;;;;2.37;1.67;;;;;;;;;;5013680;28;20431;-65
2021/11/01 21:36:13;;;;;;;1.97;1.40;;;;;;;;;;5013579;28;20430;-65
2021/11/01 21:38:40;;;;;;;2.83;1.60;;;;;;;;;;5013428;28;20960;-65
2021/11/01 21:41:07;;;;;;;3.80;1.63;;;;;;;;;;5013519;28;20399;-64
2021/11/01 21:43:33;;;;;;;1.60;1.40;;;;;;;;;;5013465;28;20396;-65
2021/11/01 21:45:59;;;;;;;2.90;1.53;;;;;;;;;;4997509;28;20523;-66
2021/11/01 21:48:25;;;;;;;3.80;2.10;;;;;;;;;;4994068;28;20809;-65
2021/11/01 21:50:52;;;;;;;2.83;1.73;;;;;;;;;;4993670;28;20499;-66
2021/11/01 21:53:22;;;;;;;2.40;1.60;;;;;;;;;;4993771;28;20492;-64
2021/11/01 21:55:49;;;;;;;2.60;1.90;;;;;;;;;;4993632;28;21024;-64
2021/11/01 21:58:38;;;;;;;5.13;1.60;;;;;;;;;;4993897;28;20487;-65
2021/11/01 22:17:14;;;;;;;1.90;1.30;;;;;;;;;;4993519;28;20384;-64
2021/11/01 22:19:56;;;;;;;1.90;1.40;;;;;;;;;;4993497;28;20876;-64
2021/11/01 22:22:44;;;;;;;1.63;1.17;;;;;;;;;;4994499;28;20414;-64
2021/11/01 22:25:18;;;;;;;2.23;1.40;;;;;;;;;;4994550;28;20455;-64
2021/11/01 22:33:34;;;;;;;2.03;1.50;;;;;;;;;;4993626;28;20394;-64
2021/11/01 22:57:24;;;;;;;2.63;1.30;;;;;;;;;;4997118;28;20805;-64
2021/11/01 22:59:50;;;;;;;1.60;1.00;;;;;;;;;;4996850;28;20457;-64
2021/11/01 23:02:16;;;;;;;1.40;1.00;;;;;;;;;;4997105;28;20765;-64
2021/11/01 23:31:29;;;;;;;1.50;1.00;;;;;;;;;;4996548;28;20395;-64
2021/11/01 23:32:02;;;;;;;2.17;1.87;;;;;;;;;;4996311;28;20779;-66
2021/11/01 23:34:28;;;;;;;1.80;1.30;;;;;;;;;;4996467;28;20439;-64
2021/11/01 23:36:58;;;;;;;1.60;1.00;;;;;;;;;;4996276;28;20405;-64
2021/11/01 23:39:24;;;;;;;2.77;1.00;;;;;;;;;;4996155;28;20459;-64
2021/11/01 23:41:50;;;;;;;1.70;1.20;;;;;;;;;;4996427;28;20424;-64
2021/11/01 23:44:17;;;;;;;2.13;1.10;;;;;;;;;;4995810;28;20463;-64
2021/11/01 23:46:43;;;;;;;3.10;1.23;;;;;;;;;;4995917;28;20612;-64
2021/11/01 23:49:09;;;;;;;2.53;1.50;;;;;;;;;;4995870;28;20774;-64
2021/11/01 23:51:36;;;;;;;1.80;1.10;;;;;;;;;;4995250;28;20430;-64
2021/11/01 23:56:42;;;;;;;1.83;1.27;;;;;;;;;;4996712;28;20412;-64
2021/11/01 23:59:08;;;;;;;2.73;1.20;;;;;;;;;;4995551;28;20451;-64
